createdAt,value
2022-08-28T00:01:57.724Z,2.78
2022-08-28T00:04:24.580Z,3.45
2022-08-28T00:06:51.399Z,3.00
2022-08-28T00:09:18.252Z,2.92
2022-08-28T00:11:45.101Z,3.20
2022-08-28T00:14:11.921Z,2.83
2022-08-28T00:16:39.312Z,2.80
2022-08-28T00:19:06.339Z,2.80
2022-08-28T00:21:34.186Z,2.88
2022-08-28T00:24:01.000Z,2.60
2022-08-28T00:26:46.800Z,3.10
2022-08-28T00:29:13.813Z,2.90
2022-08-28T00:31:40.765Z,3.35
2022-08-28T00:34:08.470Z,3.05
2022-08-28T00:36:37.338Z,3.25
2022-08-28T00:39:06.562Z,3.20
2022-08-28T00:41:36.462Z,2.65
2022-08-28T00:44:18.688Z,2.70
2022-08-28T00:46:48.849Z,2.25
2022-08-28T00:49:19.431Z,2.83
2022-08-28T00:52:08.199Z,2.53
2022-08-28T00:54:50.472Z,3.42
2022-08-28T00:57:30.438Z,2.80
2022-08-28T00:59:57.507Z,2.58
2022-08-28T01:02:24.651Z,2.42
2022-08-28T01:04:51.820Z,3.25
2022-08-28T01:07:18.801Z,2.88
2022-08-28T01:09:49.002Z,2.72
2022-08-28T01:12:20.892Z,3.25
2022-08-28T01:14:50.403Z,2.72
2022-08-28T01:17:20.644Z,3.03
2022-08-28T01:19:57.295Z,2.90
2022-08-28T01:23:05.152Z,2.40
2022-08-28T01:25:35.026Z,2.10
2022-08-28T01:28:04.111Z,2.67
2022-08-28T01:30:32.073Z,3.03
2022-08-28T01:32:59.110Z,2.38
2022-08-28T01:35:30.189Z,2.67
2022-08-28T01:37:57.099Z,2.60
2022-08-28T01:40:41.360Z,2.70
2022-08-28T01:43:17.379Z,2.25
2022-08-28T01:45:51.030Z,2.50
2022-08-28T01:48:17.797Z,2.33
2022-08-28T01:50:45.213Z,3.10
2022-08-28T01:53:15.208Z,2.75
2022-08-28T01:55:43.067Z,3.47
2022-08-28T01:58:10.715Z,2.22
2022-08-28T02:00:38.737Z,2.78
2022-08-28T02:03:07.213Z,2.60
2022-08-28T02:05:34.446Z,2.65
2022-08-28T02:08:03.205Z,2.88
2022-08-28T02:10:32.380Z,2.90
2022-08-28T02:12:59.755Z,2.88
2022-08-28T02:15:28.030Z,2.40
2022-08-28T02:17:56.097Z,2.67
2022-08-28T02:20:23.817Z,2.78
2022-08-28T02:22:51.882Z,2.47
2022-08-28T02:25:18.927Z,2.17
2022-08-28T02:27:46.206Z,2.67
2022-08-28T02:30:15.131Z,2.58
2022-08-28T02:36:57.886Z,2.97
2022-08-28T02:43:12.478Z,2.10
2022-08-28T02:45:39.384Z,2.80
2022-08-28T02:48:15.650Z,2.55
2022-08-28T02:50:43.833Z,2.38
2022-08-28T02:53:11.867Z,2.38
2022-08-28T02:55:38.514Z,2.13
2022-08-28T02:58:06.642Z,2.42
2022-08-28T03:00:36.827Z,2.35
2022-08-28T03:03:03.772Z,2.67
2022-08-28T03:05:39.712Z,1.92
2022-08-28T03:08:06.784Z,2.40
2022-08-28T03:10:33.628Z,2.30
2022-08-28T03:13:00.312Z,2.60
2022-08-28T03:15:27.296Z,2.03
2022-08-28T03:17:54.092Z,1.80
2022-08-28T03:21:07.623Z,2.53
2022-08-28T03:27:15.594Z,2.17
2022-08-28T03:30:16.553Z,2.13
2022-08-28T03:33:08.024Z,2.20
2022-08-28T03:36:09.696Z,2.25
2022-08-28T03:38:36.699Z,2.45
2022-08-28T03:41:03.631Z,2.38
2022-08-28T03:43:30.389Z,1.95
2022-08-28T03:46:02.619Z,2.50
2022-08-28T03:48:32.421Z,2.80
2022-08-28T03:51:00.529Z,2.35
2022-08-28T03:53:29.720Z,2.30
2022-08-28T03:55:57.111Z,2.15
2022-08-28T03:58:24.788Z,2.55
2022-08-28T04:00:51.432Z,2.65
2022-08-28T04:03:18.731Z,2.63
2022-08-28T04:05:47.016Z,2.67
2022-08-28T04:08:16.484Z,2.63
2022-08-28T04:10:44.560Z,2.40
2022-08-28T04:13:12.940Z,2.75
2022-08-28T04:15:39.865Z,2.40
2022-08-28T04:18:06.760Z,2.70
2022-08-28T04:20:33.796Z,2.50
2022-08-28T04:23:04.054Z,3.00
2022-08-28T04:25:31.605Z,2.60
2022-08-28T04:27:58.844Z,3.00
2022-08-28T04:30:25.454Z,2.30
2022-08-28T04:32:52.560Z,2.60
2022-08-28T04:35:19.628Z,2.42
2022-08-28T04:37:46.320Z,3.05
2022-08-28T04:40:14.474Z,2.55
2022-08-28T04:42:42.621Z,2.80
2022-08-28T04:45:09.657Z,2.15
2022-08-28T04:47:38.802Z,3.33
2022-08-28T04:50:06.991Z,2.67
2022-08-28T04:52:33.746Z,3.03
2022-08-28T04:55:00.594Z,2.58
2022-08-28T04:57:27.424Z,2.55
2022-08-28T04:59:54.257Z,2.72
2022-08-28T05:02:21.212Z,3.22
2022-08-28T05:04:47.919Z,3.00
2022-08-28T05:07:14.840Z,2.70
2022-08-28T05:09:41.528Z,3.00
2022-08-28T05:12:08.284Z,3.30
2022-08-28T05:14:36.732Z,2.85
2022-08-28T05:17:03.421Z,2.95
2022-08-28T05:19:32.628Z,2.75
2022-08-28T05:21:59.280Z,2.65
2022-08-28T05:24:26.091Z,2.63
2022-08-28T05:26:52.973Z,2.75
2022-08-28T05:29:19.961Z,3.15
2022-08-28T05:31:47.665Z,2.53
2022-08-28T05:34:15.241Z,2.85
2022-08-28T05:36:42.058Z,2.83
2022-08-28T05:39:11.744Z,2.35
2022-08-28T05:41:42.633Z,2.30
2022-08-28T05:44:13.098Z,2.75
2022-08-28T05:46:43.012Z,2.38
2022-08-28T05:49:10.678Z,2.33
2022-08-28T05:51:40.470Z,2.67
2022-08-28T05:54:07.552Z,2.00
2022-08-28T05:56:36.953Z,2.42
2022-08-28T05:59:05.873Z,2.08
2022-08-28T06:01:37.128Z,2.03
2022-08-28T06:04:31.997Z,2.30
2022-08-28T06:06:58.688Z,2.55
2022-08-28T06:09:29.619Z,2.70
2022-08-28T06:12:01.793Z,2.95
2022-08-28T06:14:29.791Z,2.35
2022-08-28T06:16:57.521Z,2.22
2022-08-28T06:19:26.256Z,1.92
2022-08-28T06:21:58.316Z,2.40
2022-08-28T06:24:26.066Z,1.80
2022-08-28T06:26:52.752Z,2.42
2022-08-28T06:29:23.245Z,2.03
2022-08-28T06:31:58.277Z,1.60
2022-08-28T06:34:25.415Z,2.22
2022-08-28T06:36:54.244Z,2.65
2022-08-28T06:39:22.274Z,2.25
2022-08-28T06:41:49.072Z,1.77
2022-08-28T06:44:20.087Z,2.28
2022-08-28T06:46:48.768Z,2.10
2022-08-28T06:49:15.493Z,1.73
2022-08-28T06:51:42.622Z,2.80
2022-08-28T06:54:09.706Z,2.08
2022-08-28T06:56:36.447Z,2.05
2022-08-28T06:59:03.161Z,2.10
2022-08-28T07:01:36.519Z,2.33
2022-08-28T07:04:09.853Z,1.80
2022-08-28T07:06:39.948Z,1.80
2022-08-28T07:09:09.208Z,2.08
2022-08-28T07:11:37.071Z,2.15
2022-08-28T07:14:04.825Z,1.55
2022-08-28T07:16:35.399Z,2.00
2022-08-28T07:19:05.269Z,1.70
2022-08-28T07:21:36.899Z,2.30
2022-08-28T07:24:07.107Z,2.10
2022-08-28T07:26:34.059Z,2.17
2022-08-28T07:29:09.681Z,2.30
2022-08-28T07:31:40.979Z,1.77
2022-08-28T07:34:09.390Z,1.75
2022-08-28T07:36:36.625Z,1.70
2022-08-28T07:39:04.890Z,1.38
2022-08-28T07:41:33.605Z,1.65
2022-08-28T07:44:18.996Z,1.80
2022-08-28T07:46:46.072Z,1.65
2022-08-28T07:49:16.929Z,1.92
2022-08-28T07:51:43.702Z,2.08
2022-08-28T07:54:15.605Z,1.55
2022-08-28T07:56:45.384Z,1.80
2022-08-28T07:59:12.466Z,1.85
2022-08-28T08:01:46.741Z,1.65
2022-08-28T08:04:16.118Z,1.80
2022-08-28T08:06:43.932Z,1.50
2022-08-28T08:09:13.788Z,1.60
2022-08-28T08:11:42.084Z,2.30
2022-08-28T08:14:09.075Z,2.33
2022-08-28T08:16:41.171Z,2.00
2022-08-28T08:19:10.046Z,1.42
2022-08-28T08:21:38.001Z,1.67
2022-08-28T08:24:05.299Z,1.23
2022-08-28T08:26:33.030Z,1.48
2022-08-28T08:29:00.783Z,1.35
2022-08-28T08:31:32.531Z,1.27
2022-08-28T08:34:02.878Z,1.58
2022-08-28T08:36:32.217Z,1.33
2022-08-28T08:39:00.366Z,1.67
2022-08-28T08:41:52.150Z,1.40
2022-08-28T08:44:33.592Z,1.42
2022-08-28T08:47:14.805Z,1.23
2022-08-28T08:49:59.701Z,1.33
2022-08-28T08:52:32.746Z,1.60
2022-08-28T08:55:23.442Z,2.00
2022-08-28T08:58:22.809Z,1.30
2022-08-28T09:00:56.119Z,1.30
2022-08-28T09:03:47.852Z,1.65
2022-08-28T09:06:48.210Z,1.55
2022-08-28T09:09:20.964Z,1.52
2022-08-28T09:12:07.797Z,1.52
2022-08-28T09:14:50.012Z,1.92
2022-08-28T09:17:24.005Z,1.23
2022-08-28T09:19:50.643Z,1.58
2022-08-28T09:22:17.220Z,1.33
2022-08-28T09:24:44.091Z,1.02
2022-08-28T09:27:39.920Z,1.85
2022-08-28T09:30:10.232Z,1.52
2022-08-28T09:32:56.310Z,1.77
2022-08-28T09:35:32.840Z,1.90
2022-08-28T09:38:27.678Z,1.90
2022-08-28T09:41:38.578Z,1.73
2022-08-28T09:44:05.335Z,1.77
2022-08-28T09:46:32.979Z,1.73
2022-08-28T09:49:14.239Z,2.05
2022-08-28T09:51:41.877Z,1.45
2022-08-28T09:54:18.027Z,1.55
2022-08-28T09:56:45.718Z,1.67
2022-08-28T09:59:18.583Z,1.80
2022-08-28T10:02:23.143Z,1.85
2022-08-28T10:04:59.178Z,1.50
2022-08-28T10:07:46.304Z,1.58
2022-08-28T10:10:32.766Z,1.70
2022-08-28T10:13:41.801Z,1.80
2022-08-28T10:16:34.131Z,1.52
2022-08-28T10:19:23.725Z,2.00
2022-08-28T10:22:10.271Z,1.90
2022-08-28T10:25:18.394Z,2.58
2022-08-28T10:28:07.827Z,2.47
2022-08-28T10:30:42.915Z,2.03
2022-08-28T10:33:44.081Z,2.30
2022-08-28T10:36:23.169Z,2.03
2022-08-28T10:39:28.848Z,2.53
2022-08-28T10:41:59.726Z,2.05
2022-08-28T10:44:36.857Z,2.50
2022-08-28T10:47:04.218Z,2.72
2022-08-28T10:49:33.882Z,1.90
2022-08-28T10:52:11.623Z,1.90
2022-08-28T10:54:48.067Z,2.60
2022-08-28T10:57:40.008Z,2.42
2022-08-28T11:00:16.100Z,2.10
2022-08-28T11:02:48.693Z,2.20
2022-08-28T11:05:24.573Z,2.60
2022-08-28T11:07:55.511Z,2.22
2022-08-28T11:10:37.051Z,2.08
2022-08-28T11:13:06.241Z,2.72
2022-08-28T11:15:37.034Z,2.58
2022-08-28T11:18:16.518Z,2.92
2022-08-28T11:20:56.852Z,2.70
2022-08-28T11:23:44.709Z,3.58
2022-08-28T11:26:14.642Z,2.95
2022-08-28T11:28:45.542Z,2.95
2022-08-28T11:31:28.827Z,2.38
2022-08-28T11:33:58.981Z,2.10
2022-08-28T11:36:27.607Z,2.22
2022-08-28T11:38:54.283Z,2.35
2022-08-28T11:41:31.530Z,2.20
2022-08-28T11:44:13.339Z,2.38
2022-08-28T11:46:51.487Z,2.47
2022-08-28T11:49:25.524Z,2.45
2022-08-28T11:52:26.598Z,2.75
2022-08-28T11:55:05.516Z,3.25
2022-08-28T11:58:20.355Z,3.38
2022-08-28T12:01:06.504Z,3.72
2022-08-28T12:04:08.373Z,3.10
2022-08-28T12:07:13.389Z,3.10
2022-08-28T12:09:45.533Z,3.67
2022-08-28T12:12:22.546Z,3.70
2022-08-28T12:14:55.309Z,3.08
2022-08-28T12:17:44.833Z,3.45
2022-08-28T12:20:24.065Z,3.10
2022-08-28T12:22:54.316Z,2.90
2022-08-28T12:25:39.521Z,2.92
2022-08-28T12:28:24.744Z,3.17
2022-08-28T12:31:14.510Z,3.13
2022-08-28T12:33:47.397Z,3.20
2022-08-28T12:36:17.183Z,3.58
2022-08-28T12:38:51.040Z,3.60
2022-08-28T12:41:18.500Z,3.70
2022-08-28T12:43:50.481Z,3.03
2022-08-28T12:46:32.419Z,4.10
2022-08-28T12:49:02.508Z,3.50
2022-08-28T12:51:32.034Z,3.80
2022-08-28T12:57:21.382Z,3.72
2022-08-28T12:59:54.095Z,4.40
2022-08-28T13:02:35.882Z,4.18
2022-08-28T13:05:30.662Z,3.58
2022-08-28T13:08:00.349Z,4.57
2022-08-28T13:10:47.320Z,3.92
2022-08-28T13:13:28.001Z,4.30
2022-08-28T13:16:01.147Z,3.42
2022-08-28T13:19:09.999Z,3.60
2022-08-28T13:21:47.308Z,3.35
2022-08-28T13:24:32.078Z,3.50
2022-08-28T13:27:04.039Z,3.75
2022-08-28T13:29:32.470Z,3.17
2022-08-28T13:32:20.458Z,3.45
2022-08-28T13:35:30.459Z,3.60
2022-08-28T13:38:01.247Z,3.70
2022-08-28T13:43:24.573Z,3.22
2022-08-28T13:45:52.280Z,3.88
2022-08-28T13:48:21.803Z,3.50
2022-08-28T13:50:53.701Z,3.40
2022-08-28T13:53:21.173Z,3.30
2022-08-28T13:55:49.812Z,3.33
2022-08-28T13:58:16.765Z,3.40
2022-08-28T14:00:49.390Z,3.13
2022-08-28T14:03:35.920Z,3.45
2022-08-28T14:06:11.089Z,3.22
2022-08-28T14:08:40.013Z,3.38
2022-08-28T14:11:07.526Z,3.42
2022-08-28T14:13:35.920Z,3.80
2022-08-28T14:16:07.597Z,3.47
2022-08-28T14:18:34.598Z,3.90
2022-08-28T14:21:03.831Z,3.53
2022-08-28T14:23:30.455Z,3.45
2022-08-28T14:26:00.143Z,3.75
2022-08-28T14:28:26.808Z,3.67
2022-08-28T14:30:53.566Z,3.15
2022-08-28T14:33:20.871Z,3.25
2022-08-28T14:35:49.843Z,3.47
2022-08-28T14:38:17.257Z,2.85
2022-08-28T14:40:45.056Z,3.55
2022-08-28T14:43:13.683Z,3.65
2022-08-28T14:45:46.125Z,4.10
2022-08-28T14:48:15.202Z,3.80
2022-08-28T14:50:47.921Z,4.00
2022-08-28T14:53:15.667Z,3.50
2022-08-28T14:55:48.816Z,3.30
2022-08-28T14:58:17.805Z,3.58
2022-08-28T15:00:48.762Z,3.05
2022-08-28T15:03:16.706Z,2.70
2022-08-28T15:05:43.882Z,2.95
2022-08-28T15:08:16.721Z,2.90
2022-08-28T15:10:44.976Z,2.78
2022-08-28T15:13:13.000Z,2.42
2022-08-28T15:15:42.512Z,3.20
2022-08-28T15:18:11.329Z,2.72
2022-08-28T15:20:40.627Z,2.90
2022-08-28T15:23:08.258Z,2.67
2022-08-28T15:25:35.392Z,2.63
2022-08-28T15:28:02.220Z,2.35
2022-08-28T15:30:28.885Z,2.55
2022-08-28T15:32:55.820Z,3.40
2022-08-28T15:35:22.501Z,2.80
2022-08-28T15:37:49.119Z,2.55
2022-08-28T15:40:35.042Z,2.67
2022-08-28T15:43:01.668Z,2.80
2022-08-28T15:45:29.617Z,3.50
2022-08-28T15:47:58.513Z,2.70
2022-08-28T15:50:25.127Z,3.10
2022-08-28T15:52:53.383Z,2.97
2022-08-28T15:55:20.139Z,2.85
2022-08-28T15:57:47.204Z,2.97
2022-08-28T16:00:14.654Z,2.63
2022-08-28T16:02:41.231Z,2.90
2022-08-28T16:05:08.430Z,2.78
2022-08-28T16:07:35.474Z,2.50
2022-08-28T16:10:09.510Z,2.60
2022-08-28T16:12:40.064Z,2.45
2022-08-28T16:15:08.259Z,2.20
2022-08-28T16:17:38.840Z,2.40
2022-08-28T16:20:06.597Z,2.53
2022-08-28T16:22:39.166Z,2.53
2022-08-28T16:25:06.704Z,3.28
2022-08-28T16:27:33.442Z,2.85
2022-08-28T16:30:00.833Z,3.00
2022-08-28T16:32:27.627Z,2.80
2022-08-28T16:34:55.003Z,2.40
2022-08-28T16:37:23.175Z,2.83
2022-08-28T16:39:54.404Z,3.10
2022-08-28T16:42:21.563Z,2.95
2022-08-28T16:44:48.304Z,3.00
2022-08-28T16:47:15.196Z,2.90
2022-08-28T16:49:41.857Z,2.92
2022-08-28T16:52:08.747Z,2.70
2022-08-28T16:54:35.369Z,2.50
2022-08-28T16:57:02.711Z,3.03
2022-08-28T16:59:29.384Z,2.30
2022-08-28T17:01:56.344Z,2.17
2022-08-28T17:04:24.080Z,2.58
2022-08-28T17:06:50.787Z,2.65
2022-08-28T17:09:20.835Z,2.60
2022-08-28T17:11:51.769Z,2.72
2022-08-28T17:14:20.294Z,2.60
2022-08-28T17:16:47.277Z,2.60
2022-08-28T17:19:15.628Z,2.92
2022-08-28T17:22:01.492Z,2.78
2022-08-28T17:24:28.423Z,2.50
2022-08-28T17:26:55.053Z,3.08
2022-08-28T17:29:21.610Z,3.03
2022-08-28T17:31:48.237Z,3.08
2022-08-28T17:34:14.816Z,3.00
2022-08-28T17:36:42.316Z,2.63
2022-08-28T17:39:13.116Z,2.85
2022-08-28T17:41:40.852Z,3.38
2022-08-28T17:44:08.169Z,2.75
2022-08-28T17:46:37.736Z,2.88
2022-08-28T17:49:07.021Z,2.80
2022-08-28T17:51:42.841Z,2.75
2022-08-28T17:54:12.665Z,2.88
2022-08-28T17:56:39.293Z,2.55
2022-08-28T17:59:06.292Z,2.97
2022-08-28T18:01:34.288Z,2.90
2022-08-28T18:04:00.910Z,3.10
2022-08-28T18:06:27.545Z,3.40
2022-08-28T18:08:55.909Z,3.05
2022-08-28T18:11:23.544Z,3.40
2022-08-28T18:13:50.185Z,3.83
2022-08-28T18:16:17.835Z,3.13
2022-08-28T18:18:44.525Z,3.00
2022-08-28T18:21:12.266Z,2.80
2022-08-28T18:23:39.788Z,3.08
2022-08-28T18:26:08.427Z,3.33
2022-08-28T18:28:37.337Z,3.53
2022-08-28T18:31:05.986Z,3.10
2022-08-28T18:33:34.452Z,3.90
2022-08-28T18:36:01.970Z,2.90
2022-08-28T18:38:29.716Z,3.30
2022-08-28T18:40:56.881Z,3.28
2022-08-28T18:43:23.908Z,2.88
2022-08-28T18:45:51.269Z,2.58
2022-08-28T18:48:19.209Z,3.20
2022-08-28T18:50:47.354Z,3.13
2022-08-28T18:53:15.577Z,3.55
2022-08-28T18:55:42.204Z,3.47
2022-08-28T18:58:15.207Z,3.50
2022-08-28T19:00:43.591Z,2.60
2022-08-28T19:03:10.951Z,3.35
2022-08-28T19:05:38.680Z,2.95
2022-08-28T19:08:06.018Z,3.60
2022-08-28T19:10:35.108Z,3.10
2022-08-28T19:13:03.237Z,3.20
2022-08-28T19:15:34.176Z,2.85
2022-08-28T19:18:01.642Z,2.92
2022-08-28T19:20:29.183Z,3.25
2022-08-28T19:22:57.742Z,3.20
2022-08-28T19:25:28.865Z,3.85
2022-08-28T19:28:01.486Z,3.25
2022-08-28T19:30:32.820Z,3.08
2022-08-28T19:33:02.369Z,3.45
2022-08-28T19:35:29.350Z,3.10
2022-08-28T19:37:56.042Z,2.67
2022-08-28T19:40:22.938Z,3.13
2022-08-28T19:42:50.295Z,3.83
2022-08-28T19:45:41.531Z,3.00
2022-08-28T19:48:21.709Z,3.00
2022-08-28T19:51:08.340Z,3.03
2022-08-28T19:56:37.408Z,2.53
2022-08-28T19:59:06.174Z,3.10
2022-08-28T20:01:37.679Z,3.28
2022-08-28T20:04:07.159Z,2.88
2022-08-28T20:06:35.735Z,2.33
2022-08-28T20:09:04.066Z,2.42
2022-08-28T20:11:31.082Z,2.85
2022-08-28T20:14:03.743Z,3.53
2022-08-28T20:16:31.842Z,3.05
2022-08-28T20:18:58.550Z,2.40
2022-08-28T20:22:05.138Z,2.70
2022-08-28T20:24:31.968Z,2.95
2022-08-28T20:26:58.642Z,3.15
2022-08-28T20:29:25.556Z,2.70
2022-08-28T20:31:52.784Z,3.17
2022-08-28T20:34:20.315Z,2.78
2022-08-28T20:36:47.991Z,2.67
2022-08-28T20:39:15.606Z,2.58
2022-08-28T20:41:44.441Z,3.10
2022-08-28T20:44:14.873Z,3.00
2022-08-28T20:46:42.546Z,3.00
2022-08-28T20:49:13.803Z,2.88
2022-08-28T20:51:56.744Z,3.10
2022-08-28T20:54:30.421Z,2.67
2022-08-28T20:56:59.362Z,2.67
2022-08-28T20:59:28.918Z,3.38
2022-08-28T21:02:05.392Z,2.70
2022-08-28T21:04:35.810Z,2.67
2022-08-28T21:07:02.568Z,3.03
2022-08-28T21:09:33.465Z,3.13
2022-08-28T21:12:17.160Z,3.05
2022-08-28T21:14:45.519Z,3.03
2022-08-28T21:17:22.668Z,2.88
2022-08-28T21:19:57.691Z,3.33
2022-08-28T21:22:24.274Z,2.60
2022-08-28T21:24:50.988Z,2.63
2022-08-28T21:27:18.630Z,2.78
2022-08-28T21:29:46.191Z,2.60
2022-08-28T21:32:13.134Z,2.50
2022-08-28T21:34:39.919Z,2.42
2022-08-28T21:37:06.690Z,3.17
2022-08-28T21:39:34.385Z,3.10
2022-08-28T21:42:00.986Z,2.63
2022-08-28T21:44:27.768Z,2.53
2022-08-28T21:46:54.452Z,2.97
2022-08-28T21:49:22.654Z,2.63
2022-08-28T21:51:49.754Z,2.97
2022-08-28T21:54:16.683Z,3.13
2022-08-28T21:56:43.335Z,2.88
2022-08-28T21:59:10.036Z,3.10
2022-08-28T22:01:37.082Z,2.72
2022-08-28T22:04:04.497Z,3.13
2022-08-28T22:06:31.702Z,2.60
2022-08-28T22:08:58.443Z,2.58
2022-08-28T22:11:26.709Z,2.70
2022-08-28T22:13:55.392Z,2.38
2022-08-28T22:16:23.453Z,2.35
2022-08-28T22:18:50.780Z,3.30
2022-08-28T22:21:40.861Z,2.50
2022-08-28T22:24:08.621Z,2.65
2022-08-28T22:26:35.397Z,3.10
2022-08-28T22:29:02.109Z,2.50
2022-08-28T22:31:29.529Z,2.78
2022-08-28T22:33:56.486Z,2.80
2022-08-28T22:36:23.335Z,2.53
2022-08-28T22:38:56.341Z,2.65
2022-08-28T22:41:24.273Z,2.75
2022-08-28T22:43:51.882Z,2.65
2022-08-28T22:46:20.578Z,2.55
2022-08-28T22:48:47.826Z,2.38
2022-08-28T22:51:18.247Z,3.22
2022-08-28T22:53:45.384Z,2.85
2022-08-28T22:56:12.454Z,2.70
2022-08-28T22:58:39.973Z,2.40
2022-08-28T23:01:20.193Z,2.88
2022-08-28T23:03:48.073Z,2.63
2022-08-28T23:06:15.297Z,2.35
2022-08-28T23:08:42.526Z,2.80
2022-08-28T23:11:10.637Z,2.55
2022-08-28T23:13:37.348Z,2.47
2022-08-28T23:16:05.243Z,2.92
2022-08-28T23:18:46.383Z,2.30
2022-08-28T23:21:20.839Z,2.92
2022-08-28T23:23:47.544Z,2.67
2022-08-28T23:26:15.309Z,2.95
2022-08-28T23:28:43.600Z,2.97
2022-08-28T23:31:10.503Z,3.00
2022-08-28T23:33:37.122Z,2.60
2022-08-28T23:36:04.561Z,2.50
2022-08-28T23:38:31.324Z,2.50
2022-08-28T23:40:58.639Z,2.78
2022-08-28T23:43:25.289Z,2.88
2022-08-28T23:45:52.072Z,2.90
2022-08-28T23:48:18.890Z,2.85
2022-08-28T23:50:45.483Z,2.97
2022-08-28T23:53:12.190Z,2.75
2022-08-28T23:55:39.300Z,2.70
2022-08-28T23:58:06.479Z,2.90
